Accueil
METAR-TAF:

METAR-TAF

Aéroports :

Bradshaw, Hawaï, États-Unis

Bradshaw Army Air Field

latitude: 19-47N, longitude: 155-33W, altitude: 1887 m

Observation

Le bulletin a été fait il y a 47 minutes, à 20:56 UTC
Vent 12 kt de sud avec des rafales jusqu'à 24 kt
Température 18°C
Humidité 45%
Pression 1025 hPa
Visibilité: 16.1 km
Quelques nuages à une hauteur de 7000 ft

METAR: PHSF 222056Z AUTO 17012G24KT 10SM FEW070 18/06 A3027 RMK AO2 PK WND 17026/23 SLP136 WND DATA ESTMD T01830061 55001 $

Heure: 11:43 (21:43 UTC)


TAF: absent

Observations et prévisions météorologiques de plus de 4000 aéroports (messages METAR et TAF).

Les stations disponibles sont représentées par des disques jaunes et rouges sur la carte.

Passer la souris dessus pour voir le nom de la station.

Cliquer dessus pour voir les observations et prévisions météorologiques.

Pour changer de carte: cliquez sur les boutons verts avec une croix noire pour zoomer, sur le bouton vert avec un tiret pour effectuer un zoom arrière, ou sur les flèches vertes pour les cartes adjacentes.


METAR-TAF: